Aeroporto :
LOGIN :

Iscrizione | Disclaimer

   EN    FR    IT 

 










Sommario :    VFR   VFR Marginale   IFR   IFR Intensivo   IFR Molto Intensivo
Visibilità : 
Base nubi : 
>= 8 km
>= 3000ft
5 / 8 km
1000 / 3000 ft
1500m / 5 km
500 / 1000 ft
800 / 1500m
200 / 500 ft
< 800m
< 200 ft
Simboli :   Temporali  Nebbia  Neve Forte  Precipitazioni Forti  Vento > 20 kt
SIGMETs :   Varie  Temporali  Ghiacco  Turbolenza  Onda orograficha  Ceneri Vulcaniche






- Altitudine del aeroporto : 13 ft
- Codice IATA : LYX


EGMD - Lydd

ULTIMO METAR :
  • 250150Z AUTO 05004KT 9999 NCD 13/12 Q1017

METARs OBSOLETI :
  • 250120Z AUTO 05005KT 9999 NCD 14/13 Q1017
  • 250050Z AUTO 06005KT 9999 NCD 14/13 Q1017
  • 250020Z AUTO 07006KT 9999 NCD 15/13 Q1017
  • 242350Z AUTO 05006KT 9999 NCD 14/12 Q1018
  • 242320Z AUTO 06006KT 9999 NCD 15/13 Q1018
  • 242250Z AUTO 07007KT 9999 NCD 15/13 Q1018
  • 242150Z AUTO 08007KT 9999 NCD 16/14 Q1018
  • 242120Z AUTO 08007KT 9999 NCD 15/13 Q1018
  • 242050Z AUTO 08005KT 9999 NCD 16/13 Q1018

TAF TAF EGMD
Valido dal 25 a 00 ore il 25 a 09 ore UTC


242257Z 2500/2509 07005KT CAVOK
PROB40
TEMPO 2500/2507 6000
ATIS : +44 1797 322 422



MetMap, La meteo Aeronautica in un colpo d'occhio ! - Copyright ORBIFLY Dicembre 2007 - Disclaimer

ORBIFLY MET'MAP TEAM :

Programmazione e sviluppo : Alexandra Zaïnal
Concezione : Baudouin d'Aumeries
Supporto tecnico e logistico : Manuel Goepfert
Aiuto : Marc-Olivier Méhu
Aiuto per la traduzione : Arnaldo La Scala




FONTI E CREDITI :

   NOAA